createdAt,value
2023-03-16T00:00:36.365Z,-1.79
2023-03-16T00:03:04.356Z,-1.99
2023-03-16T00:05:32.165Z,-2.03
2023-03-16T00:07:59.726Z,-1.90
2023-03-16T00:10:27.952Z,-1.72
2023-03-16T00:12:57.259Z,-1.89
2023-03-16T00:15:24.844Z,-2.02
2023-03-16T00:17:52.453Z,-1.84
2023-03-16T00:20:20.100Z,-1.86
2023-03-16T00:22:47.625Z,-1.90
2023-03-16T00:25:15.404Z,-1.67
2023-03-16T00:27:42.924Z,-1.64
2023-03-16T00:30:12.784Z,-1.73
2023-03-16T00:32:40.396Z,-1.81
2023-03-16T00:35:09.538Z,-2.01
2023-03-16T00:37:39.562Z,-2.18
2023-03-16T00:40:08.242Z,-2.15
2023-03-16T00:42:35.897Z,-2.24
2023-03-16T00:45:03.559Z,-2.24
2023-03-16T00:47:32.982Z,-2.07
2023-03-16T00:50:01.105Z,-2.11
2023-03-16T00:52:28.969Z,-2.32
2023-03-16T00:54:58.556Z,-2.16
2023-03-16T00:57:27.804Z,-2.31
2023-03-16T00:59:56.263Z,-2.21
2023-03-16T01:02:24.801Z,-2.28
2023-03-16T01:04:54.781Z,-2.16
2023-03-16T01:07:22.919Z,-2.06
2023-03-16T01:09:51.598Z,-2.31
2023-03-16T01:12:19.634Z,-2.35
2023-03-16T01:14:47.354Z,-2.28
2023-03-16T01:17:15.007Z,-2.17
2023-03-16T01:19:43.448Z,-2.29
2023-03-16T01:22:12.462Z,-2.31
2023-03-16T01:24:40.612Z,-2.37
2023-03-16T01:27:08.219Z,-2.43
2023-03-16T01:29:36.301Z,-2.42
2023-03-16T01:32:04.542Z,-2.39
2023-03-16T01:34:32.548Z,-2.24
2023-03-16T01:37:00.930Z,-2.34
2023-03-16T01:39:40.874Z,-2.31
2023-03-16T01:42:09.772Z,-2.52
2023-03-16T01:44:50.646Z,-2.44
2023-03-16T01:47:18.453Z,-2.50
2023-03-16T01:49:48.215Z,-2.43
2023-03-16T01:52:15.966Z,-2.40
2023-03-16T01:54:45.245Z,-2.36
2023-03-16T01:57:13.565Z,-2.52
2023-03-16T01:59:44.193Z,-2.33
2023-03-16T02:02:12.074Z,-2.47
2023-03-16T02:04:42.258Z,-2.55
2023-03-16T02:07:10.741Z,-2.61
2023-03-16T02:09:38.718Z,-2.59
2023-03-16T02:12:08.155Z,-2.51
2023-03-16T02:14:41.374Z,-2.54
2023-03-16T02:17:09.029Z,-2.64
2023-03-16T02:19:38.246Z,-2.68
2023-03-16T02:22:06.985Z,-2.63
2023-03-16T02:24:35.257Z,-2.61
2023-03-16T02:27:04.559Z,-2.63
2023-03-16T02:29:47.423Z,-2.66
2023-03-16T02:32:15.081Z,-2.79
2023-03-16T02:34:42.926Z,-2.86
2023-03-16T02:37:12.006Z,-2.87
2023-03-16T02:39:44.252Z,-2.78
2023-03-16T02:42:15.954Z,-2.82
2023-03-16T02:44:45.103Z,-2.83
2023-03-16T02:47:16.431Z,-2.80
2023-03-16T02:49:45.117Z,-2.67
2023-03-16T02:52:12.821Z,-2.79
2023-03-16T02:54:40.650Z,-2.80
2023-03-16T02:57:10.002Z,-2.70
2023-03-16T02:59:37.984Z,-2.73
2023-03-16T03:02:06.213Z,-2.84
2023-03-16T03:04:35.156Z,-2.85
2023-03-16T03:07:04.980Z,-2.87
2023-03-16T03:09:42.194Z,-2.93
2023-03-16T03:12:10.167Z,-2.99
2023-03-16T03:14:38.111Z,-3.01
2023-03-16T03:17:05.912Z,-2.97
2023-03-16T03:19:34.933Z,-2.97
2023-03-16T03:22:04.202Z,-2.98
2023-03-16T03:24:32.849Z,-3.08
2023-03-16T03:27:01.107Z,-3.03
2023-03-16T03:29:34.525Z,-2.93
2023-03-16T03:32:02.598Z,-2.63
2023-03-16T03:34:31.429Z,-2.64
2023-03-16T03:37:01.128Z,-2.82
2023-03-16T03:39:29.342Z,-2.90
2023-03-16T03:41:57.171Z,-2.95
2023-03-16T03:44:25.129Z,-3.07
2023-03-16T03:46:52.953Z,-3.06
2023-03-16T03:49:21.103Z,-2.90
2023-03-16T03:51:50.030Z,-2.74
2023-03-16T03:54:24.178Z,-2.63
2023-03-16T03:56:56.220Z,-2.88
2023-03-16T03:59:23.956Z,-2.94
2023-03-16T04:02:30.319Z,-3.01
2023-03-16T04:04:58.683Z,-2.95
2023-03-16T04:07:26.260Z,-3.17
2023-03-16T04:09:58.807Z,-3.22
2023-03-16T04:12:34.397Z,-3.20
2023-03-16T04:15:02.585Z,-3.00
2023-03-16T04:17:35.934Z,-3.25
2023-03-16T04:20:12.974Z,-3.14
2023-03-16T04:22:40.624Z,-3.31
2023-03-16T04:25:11.411Z,-3.37
2023-03-16T04:27:40.572Z,-3.32
2023-03-16T04:30:11.236Z,-3.34
2023-03-16T04:32:41.735Z,-3.34
2023-03-16T04:35:10.003Z,-3.35
2023-03-16T04:37:45.568Z,-3.34
2023-03-16T04:40:17.474Z,-3.39
2023-03-16T04:42:50.736Z,-3.39
2023-03-16T04:45:20.921Z,-3.50
2023-03-16T04:47:51.756Z,-3.40
2023-03-16T04:50:19.623Z,-3.43
2023-03-16T04:52:52.484Z,-3.38
2023-03-16T04:55:23.014Z,-3.44
2023-03-16T04:57:52.573Z,-3.53
2023-03-16T05:00:23.394Z,-3.52
2023-03-16T05:03:02.786Z,-3.51
2023-03-16T05:05:31.144Z,-3.40
2023-03-16T05:07:58.728Z,-3.43
2023-03-16T05:10:30.488Z,-3.41
2023-03-16T05:12:58.365Z,-3.34
2023-03-16T05:15:25.931Z,-3.34
2023-03-16T05:18:03.683Z,-3.33
2023-03-16T05:20:31.494Z,-3.35
2023-03-16T05:23:01.840Z,-3.37
2023-03-16T05:25:33.784Z,-3.46
2023-03-16T05:28:05.461Z,-3.22
2023-03-16T05:30:39.595Z,-3.30
2023-03-16T05:33:11.188Z,-3.26
2023-03-16T05:35:39.468Z,-3.17
2023-03-16T05:38:11.050Z,-3.20
2023-03-16T05:40:42.499Z,-3.23
2023-03-16T05:43:18.134Z,-3.29
2023-03-16T05:45:50.296Z,-3.19
2023-03-16T05:48:21.164Z,-3.04
2023-03-16T05:50:53.774Z,-3.19
2023-03-16T05:53:28.806Z,-3.13
2023-03-16T05:56:02.191Z,-3.21
2023-03-16T05:58:34.042Z,-3.12
2023-03-16T06:01:05.502Z,-2.97
2023-03-16T06:03:33.094Z,-3.18
2023-03-16T06:06:02.202Z,-3.15
2023-03-16T06:08:39.157Z,-2.97
2023-03-16T06:11:11.568Z,-2.86
2023-03-16T06:13:39.667Z,-2.79
2023-03-16T06:16:07.942Z,-2.80
2023-03-16T06:18:36.629Z,-2.83
2023-03-16T06:21:05.220Z,-2.73
2023-03-16T06:23:34.834Z,-2.74
2023-03-16T06:26:03.902Z,-2.54
2023-03-16T06:28:34.540Z,-2.62
2023-03-16T06:31:02.262Z,-2.44
2023-03-16T06:33:34.462Z,-2.41
2023-03-16T06:36:02.559Z,-2.36
2023-03-16T06:38:34.961Z,-2.40
2023-03-16T06:41:25.252Z,-2.41
2023-03-16T06:43:54.356Z,-2.34
2023-03-16T06:46:22.060Z,-2.50
2023-03-16T06:48:49.847Z,-2.33
2023-03-16T06:51:17.634Z,-2.32
2023-03-16T06:53:46.645Z,-2.26
2023-03-16T06:56:14.652Z,-2.30
2023-03-16T06:58:45.339Z,-2.09
2023-03-16T07:01:14.357Z,-2.09
2023-03-16T07:03:42.029Z,-1.99
2023-03-16T07:06:18.432Z,-2.08
2023-03-16T07:08:46.086Z,-2.05
2023-03-16T07:11:14.972Z,-1.99
2023-03-16T07:13:42.601Z,-1.94
2023-03-16T07:16:11.196Z,-1.77
2023-03-16T07:18:40.156Z,-1.73
2023-03-16T07:21:10.731Z,-1.48
2023-03-16T07:23:38.845Z,-1.52
2023-03-16T07:26:08.747Z,-1.32
2023-03-16T07:28:40.780Z,-1.23
2023-03-16T07:31:09.511Z,-1.09
2023-03-16T07:33:42.255Z,-0.89
2023-03-16T07:36:14.181Z,-0.74
2023-03-16T07:38:47.564Z,-0.71
2023-03-16T07:41:15.127Z,-0.64
2023-03-16T07:43:44.408Z,-0.46
2023-03-16T07:46:14.908Z,-0.60
2023-03-16T07:48:44.131Z,-0.60
2023-03-16T07:51:12.730Z,-0.59
2023-03-16T07:53:40.691Z,-0.25
2023-03-16T07:56:18.979Z,-0.24
2023-03-16T07:58:51.569Z,-0.22
2023-03-16T08:01:19.248Z,-0.28
2023-03-16T08:03:50.115Z,-0.12
2023-03-16T08:06:18.220Z,0.04
2023-03-16T08:08:46.395Z,0.49
2023-03-16T08:11:24.540Z,0.63
2023-03-16T08:13:58.486Z,1.01
2023-03-16T08:16:34.660Z,1.07
2023-03-16T08:19:05.908Z,1.25
2023-03-16T08:21:35.105Z,1.39
2023-03-16T08:24:06.481Z,1.50
2023-03-16T08:26:34.000Z,1.53
2023-03-16T08:29:03.410Z,1.27
2023-03-16T08:31:35.578Z,1.73
2023-03-16T08:34:12.750Z,2.02
2023-03-16T08:36:44.700Z,2.50
2023-03-16T08:39:15.073Z,3.47
2023-03-16T08:41:48.161Z,2.87
2023-03-16T08:44:36.298Z,3.65
2023-03-16T08:47:05.372Z,2.70
2023-03-16T08:49:40.053Z,3.28
2023-03-16T08:52:14.016Z,4.52
2023-03-16T08:54:56.153Z,4.78
2023-03-16T08:57:29.688Z,5.75
2023-03-16T08:59:57.287Z,5.61
2023-03-16T09:02:25.035Z,4.98
2023-03-16T09:04:54.012Z,4.54
2023-03-16T09:07:21.958Z,6.21
2023-03-16T09:09:49.583Z,6.07
2023-03-16T09:12:17.136Z,5.93
2023-03-16T09:14:46.070Z,5.94
2023-03-16T09:17:13.675Z,5.90
2023-03-16T09:19:51.150Z,6.13
2023-03-16T09:22:20.747Z,5.90
2023-03-16T09:24:48.523Z,6.84
2023-03-16T09:27:16.469Z,6.53
2023-03-16T09:29:45.394Z,6.60
2023-03-16T09:32:14.210Z,7.27
2023-03-16T09:34:42.297Z,6.40
2023-03-16T09:37:10.288Z,7.10
2023-03-16T09:39:39.665Z,6.98
2023-03-16T09:42:09.446Z,6.75
2023-03-16T09:44:39.960Z,7.04
2023-03-16T09:47:08.747Z,6.92
2023-03-16T09:49:37.250Z,7.30
2023-03-16T09:52:07.160Z,6.38
2023-03-16T09:54:39.150Z,7.81
2023-03-16T09:57:09.561Z,7.72
2023-03-16T09:59:37.166Z,7.82
2023-03-16T10:02:07.259Z,8.40
2023-03-16T10:04:39.674Z,8.06
2023-03-16T10:07:13.569Z,6.25
2023-03-16T10:09:43.587Z,6.75
2023-03-16T10:12:12.485Z,7.70
2023-03-16T10:14:40.806Z,7.70
2023-03-16T10:17:09.389Z,7.66
2023-03-16T10:19:38.486Z,7.17
2023-03-16T10:22:11.060Z,8.83
2023-03-16T10:24:40.848Z,9.72
2023-03-16T10:27:08.522Z,7.91
2023-03-16T10:29:38.696Z,8.17
2023-03-16T10:32:09.783Z,8.54
2023-03-16T10:34:37.372Z,8.78
2023-03-16T10:37:05.326Z,8.68
2023-03-16T10:39:36.713Z,8.02
2023-03-16T10:42:04.263Z,8.78
2023-03-16T10:44:32.229Z,8.44
2023-03-16T10:47:01.904Z,7.81
2023-03-16T10:49:29.892Z,8.17
2023-03-16T10:51:59.496Z,8.44
2023-03-16T10:54:29.536Z,8.23
2023-03-16T10:56:57.574Z,8.01
2023-03-16T10:59:34.448Z,8.76
2023-03-16T11:02:05.425Z,9.10
2023-03-16T11:04:33.331Z,8.17
2023-03-16T11:07:00.873Z,8.75
2023-03-16T11:09:33.170Z,8.68
2023-03-16T11:12:00.744Z,8.94
2023-03-16T11:14:28.761Z,8.92
2023-03-16T11:17:00.242Z,9.18
2023-03-16T11:19:29.729Z,8.82
2023-03-16T11:21:58.161Z,9.12
2023-03-16T11:24:27.073Z,9.45
2023-03-16T11:26:55.655Z,9.19
2023-03-16T11:29:24.946Z,8.76
2023-03-16T11:31:55.304Z,8.80
2023-03-16T11:34:23.687Z,8.89
2023-03-16T11:36:57.627Z,9.43
2023-03-16T11:39:29.057Z,9.24
2023-03-16T11:41:59.516Z,8.67
2023-03-16T11:44:29.678Z,9.49
2023-03-16T11:46:58.196Z,9.65
2023-03-16T11:49:32.538Z,8.75
2023-03-16T11:52:03.567Z,7.95
2023-03-16T11:54:37.760Z,8.00
2023-03-16T11:57:07.539Z,8.44
2023-03-16T11:59:38.758Z,8.32
2023-03-16T12:02:14.435Z,8.45
2023-03-16T12:04:46.522Z,8.75
2023-03-16T12:07:20.431Z,8.94
2023-03-16T12:10:03.136Z,9.00
2023-03-16T12:12:34.368Z,8.73
2023-03-16T12:15:05.319Z,9.34
2023-03-16T12:17:33.326Z,9.55
2023-03-16T12:20:01.993Z,9.69
2023-03-16T12:22:32.193Z,9.51
2023-03-16T12:24:59.892Z,9.49
2023-03-16T12:27:28.354Z,10.42
2023-03-16T12:30:03.664Z,9.67
2023-03-16T12:32:34.741Z,9.90
2023-03-16T12:35:04.378Z,9.37
2023-03-16T12:37:36.001Z,9.08
2023-03-16T12:40:08.020Z,9.10
2023-03-16T12:42:50.605Z,9.58
2023-03-16T12:45:18.827Z,9.76
2023-03-16T12:47:49.380Z,9.74
2023-03-16T12:50:18.842Z,10.38
2023-03-16T12:52:48.450Z,10.41
2023-03-16T12:55:16.450Z,9.59
2023-03-16T12:57:44.191Z,9.98
2023-03-16T13:00:15.001Z,9.98
2023-03-16T13:02:44.224Z,10.15
2023-03-16T13:05:12.404Z,9.43
2023-03-16T13:07:48.373Z,9.23
2023-03-16T13:10:17.210Z,9.20
2023-03-16T13:12:46.255Z,9.24
2023-03-16T13:15:26.328Z,9.52
2023-03-16T13:21:41.233Z,8.73
2023-03-16T13:24:22.946Z,8.88
2023-03-16T13:26:50.764Z,8.65
2023-03-16T13:29:21.649Z,8.94
2023-03-16T13:31:49.282Z,9.00
2023-03-16T13:34:20.438Z,8.85
2023-03-16T13:36:48.016Z,9.00
2023-03-16T13:39:18.765Z,8.90
2023-03-16T13:41:56.021Z,8.90
2023-03-16T13:44:23.997Z,9.04
2023-03-16T13:46:51.882Z,9.48
2023-03-16T13:49:19.461Z,9.45
2023-03-16T13:51:47.229Z,8.88
2023-03-16T13:54:20.438Z,9.16
2023-03-16T13:56:49.024Z,9.06
2023-03-16T13:59:17.873Z,9.14
2023-03-16T14:01:45.553Z,8.84
2023-03-16T14:04:18.738Z,9.36
2023-03-16T14:06:53.047Z,9.56
2023-03-16T14:09:22.770Z,8.76
2023-03-16T14:11:50.331Z,9.26
2023-03-16T14:14:18.298Z,9.40
2023-03-16T14:16:45.924Z,9.33
2023-03-16T14:19:16.638Z,9.46
2023-03-16T14:21:44.742Z,9.36
2023-03-16T14:24:17.773Z,9.42
2023-03-16T14:26:47.269Z,8.92
2023-03-16T14:29:16.060Z,9.01
2023-03-16T14:31:43.588Z,8.95
2023-03-16T14:34:21.387Z,8.84
2023-03-16T14:36:48.999Z,9.06
2023-03-16T14:39:18.260Z,9.08
2023-03-16T14:41:49.719Z,9.04
2023-03-16T14:44:19.205Z,9.05
2023-03-16T14:46:46.754Z,8.66
2023-03-16T14:49:19.186Z,9.11
2023-03-16T14:51:46.969Z,8.84
2023-03-16T14:54:15.028Z,8.62
2023-03-16T14:56:43.748Z,8.69
2023-03-16T14:59:12.964Z,8.45
2023-03-16T15:01:40.613Z,8.80
2023-03-16T15:04:08.491Z,8.59
2023-03-16T15:06:36.074Z,8.64
2023-03-16T15:09:03.624Z,8.93
2023-03-16T15:11:31.846Z,8.81
2023-03-16T15:14:14.946Z,8.58
2023-03-16T15:16:44.072Z,8.49
2023-03-16T15:19:11.861Z,8.56
2023-03-16T15:21:40.150Z,8.29
2023-03-16T15:24:09.979Z,8.25
2023-03-16T15:26:37.593Z,8.00
2023-03-16T15:29:07.479Z,8.18
2023-03-16T15:31:35.022Z,8.01
2023-03-16T15:34:03.953Z,8.05
2023-03-16T15:36:31.732Z,8.05
2023-03-16T15:38:59.384Z,8.16
2023-03-16T15:41:32.335Z,7.89
2023-03-16T15:44:06.739Z,8.07
2023-03-16T15:46:34.972Z,7.90
2023-03-16T15:49:04.046Z,8.01
2023-03-16T15:51:31.731Z,7.83
2023-03-16T15:53:59.954Z,7.46
2023-03-16T15:56:30.035Z,7.24
2023-03-16T15:59:00.446Z,7.31
2023-03-16T16:01:30.572Z,7.10
2023-03-16T16:04:01.865Z,7.22
2023-03-16T16:06:30.789Z,7.14
2023-03-16T16:08:58.320Z,7.19
2023-03-16T16:11:26.379Z,7.07
2023-03-16T16:13:54.138Z,7.27
2023-03-16T16:16:22.799Z,6.91
2023-03-16T16:18:50.880Z,7.00
2023-03-16T16:21:19.263Z,7.08
2023-03-16T16:23:48.671Z,6.87
2023-03-16T16:26:21.785Z,6.97
2023-03-16T16:28:49.427Z,6.80
2023-03-16T16:31:17.287Z,6.67
2023-03-16T16:33:44.882Z,6.54
2023-03-16T16:36:14.201Z,6.67
2023-03-16T16:38:42.223Z,6.62
2023-03-16T16:41:11.786Z,6.61
2023-03-16T16:43:39.904Z,6.78
2023-03-16T16:46:08.141Z,6.71
2023-03-16T16:48:36.826Z,6.79
2023-03-16T16:51:04.625Z,6.86
2023-03-16T16:53:32.127Z,6.90
2023-03-16T16:55:59.953Z,6.93
2023-03-16T16:58:28.932Z,7.01
2023-03-16T17:00:57.550Z,6.87
2023-03-16T17:03:25.663Z,6.75
2023-03-16T17:05:53.623Z,6.52
2023-03-16T17:08:21.734Z,6.55
2023-03-16T17:10:49.308Z,6.52
2023-03-16T17:13:25.769Z,6.40
2023-03-16T17:15:55.073Z,6.45
2023-03-16T17:18:23.064Z,6.41
2023-03-16T17:20:52.305Z,6.16
2023-03-16T17:23:23.850Z,6.04
2023-03-16T17:25:52.168Z,5.86
2023-03-16T17:28:19.729Z,5.54
2023-03-16T17:30:48.099Z,5.55
2023-03-16T17:33:17.477Z,5.74
2023-03-16T17:35:45.803Z,5.72
2023-03-16T17:38:18.321Z,5.41
2023-03-16T17:40:46.241Z,5.42
2023-03-16T17:43:14.632Z,4.99
2023-03-16T17:45:42.258Z,5.21
2023-03-16T17:48:15.654Z,5.31
2023-03-16T17:50:45.905Z,5.42
2023-03-16T17:53:13.824Z,5.35
2023-03-16T17:55:41.659Z,5.37
2023-03-16T17:58:14.078Z,5.34
2023-03-16T18:00:46.922Z,4.86
2023-03-16T18:03:18.027Z,4.38
2023-03-16T18:06:18.260Z,4.38
2023-03-16T18:08:50.268Z,4.48
2023-03-16T18:15:18.289Z,4.76
2023-03-16T18:17:46.173Z,4.73
2023-03-16T18:20:20.598Z,4.68
2023-03-16T18:22:49.516Z,4.32
2023-03-16T18:25:28.181Z,4.39
2023-03-16T18:27:55.907Z,4.34
2023-03-16T18:30:23.473Z,4.53
2023-03-16T18:32:51.832Z,4.34
2023-03-16T18:35:19.506Z,4.58
2023-03-16T18:37:47.057Z,4.22
2023-03-16T18:44:12.999Z,3.83
2023-03-16T18:46:40.908Z,3.95
2023-03-16T18:49:11.626Z,4.14
2023-03-16T18:51:39.200Z,3.75
2023-03-16T18:54:07.532Z,3.71
2023-03-16T18:56:41.554Z,3.87
2023-03-16T18:59:12.513Z,3.61
2023-03-16T19:01:40.854Z,3.78
2023-03-16T19:04:12.516Z,3.95
2023-03-16T19:06:40.097Z,3.65
2023-03-16T19:09:09.012Z,3.90
2023-03-16T19:11:37.130Z,3.65
2023-03-16T19:14:04.705Z,3.92
2023-03-16T19:16:33.844Z,3.89
2023-03-16T19:19:01.905Z,3.96
2023-03-16T19:21:29.474Z,3.58
2023-03-16T19:23:58.733Z,3.42
2023-03-16T19:26:26.324Z,3.68
2023-03-16T19:28:53.882Z,3.65
2023-03-16T19:31:21.969Z,3.64
2023-03-16T19:33:51.977Z,3.55
2023-03-16T19:36:20.770Z,3.66
2023-03-16T19:38:50.475Z,3.78
2023-03-16T19:41:23.569Z,3.94
2023-03-16T19:43:51.462Z,3.63
2023-03-16T19:46:19.321Z,3.79
2023-03-16T19:48:47.549Z,3.72
2023-03-16T19:51:17.301Z,3.83
2023-03-16T19:53:48.258Z,3.87
2023-03-16T19:56:16.465Z,3.72
2023-03-16T19:58:47.473Z,3.61
2023-03-16T20:01:17.940Z,3.57
2023-03-16T20:03:46.658Z,3.66
2023-03-16T20:06:16.376Z,3.42
2023-03-16T20:08:46.971Z,3.41
2023-03-16T20:11:16.689Z,3.32
2023-03-16T20:13:45.302Z,3.34
2023-03-16T20:16:16.949Z,3.40
2023-03-16T20:18:47.242Z,3.27
2023-03-16T20:21:18.020Z,3.19
2023-03-16T20:23:46.270Z,3.41
2023-03-16T20:26:17.897Z,3.60
2023-03-16T20:28:50.593Z,3.28
2023-03-16T20:31:21.369Z,3.17
2023-03-16T20:33:50.489Z,3.45
2023-03-16T20:36:20.498Z,3.43
2023-03-16T20:38:49.110Z,3.47
2023-03-16T20:41:18.105Z,3.52
2023-03-16T20:43:46.481Z,3.57
2023-03-16T20:46:16.277Z,3.64
2023-03-16T20:48:44.225Z,3.57
2023-03-16T20:51:13.895Z,3.54
2023-03-16T20:53:43.385Z,3.50
2023-03-16T20:56:16.491Z,3.36
2023-03-16T20:58:46.934Z,3.58
2023-03-16T21:01:17.733Z,3.63
2023-03-16T21:03:47.668Z,3.55
2023-03-16T21:06:18.955Z,3.54
2023-03-16T21:08:47.868Z,3.58
2023-03-16T21:11:20.763Z,3.65
2023-03-16T21:13:48.365Z,3.78
2023-03-16T21:16:16.848Z,3.75
2023-03-16T21:18:45.019Z,3.80
2023-03-16T21:21:14.109Z,3.88
2023-03-16T21:23:46.497Z,3.83
2023-03-16T21:26:17.429Z,3.93
2023-03-16T21:28:49.337Z,4.00
2023-03-16T21:31:19.566Z,3.95
2023-03-16T21:33:49.642Z,4.03
2023-03-16T21:36:18.207Z,4.02
2023-03-16T21:38:46.004Z,4.04
2023-03-16T21:41:14.907Z,4.05
2023-03-16T21:43:46.975Z,4.14
2023-03-16T21:46:16.188Z,4.06
2023-03-16T21:48:45.098Z,4.21
2023-03-16T21:51:14.067Z,4.07
2023-03-16T21:53:41.657Z,4.03
2023-03-16T21:56:11.419Z,4.18
2023-03-16T21:58:38.932Z,4.23
2023-03-16T22:01:08.528Z,4.19
2023-03-16T22:03:49.979Z,3.94
2023-03-16T22:06:18.324Z,4.07
2023-03-16T22:08:46.509Z,4.22
2023-03-16T22:11:15.555Z,4.24
2023-03-16T22:13:43.198Z,4.19
2023-03-16T22:16:13.932Z,4.31
2023-03-16T22:18:41.677Z,4.41
2023-03-16T22:21:14.476Z,4.26
2023-03-16T22:23:41.992Z,4.33
2023-03-16T22:26:13.095Z,4.24
2023-03-16T22:28:40.688Z,4.28
2023-03-16T22:31:08.289Z,4.28
2023-03-16T22:33:37.628Z,4.26
2023-03-16T22:36:06.248Z,4.50
2023-03-16T22:38:33.834Z,4.48
2023-03-16T22:41:01.407Z,4.25
2023-03-16T22:43:29.674Z,4.33
2023-03-16T22:45:57.306Z,4.38
2023-03-16T22:48:25.529Z,4.42
2023-03-16T22:50:54.956Z,4.37
2023-03-16T22:53:23.311Z,4.45
2023-03-16T22:55:50.897Z,4.22
2023-03-16T22:58:18.936Z,4.25
2023-03-16T23:00:46.484Z,4.36
2023-03-16T23:03:16.198Z,4.17
2023-03-16T23:05:43.812Z,4.23
2023-03-16T23:08:14.090Z,4.34
2023-03-16T23:10:42.105Z,4.23
2023-03-16T23:13:11.779Z,4.05
2023-03-16T23:15:39.339Z,4.17
2023-03-16T23:18:11.230Z,4.15
2023-03-16T23:20:38.827Z,3.94
2023-03-16T23:23:06.489Z,4.04
2023-03-16T23:25:36.156Z,4.03
2023-03-16T23:28:04.170Z,4.11
2023-03-16T23:30:32.260Z,4.18
2023-03-16T23:33:00.042Z,4.19
2023-03-16T23:35:28.448Z,4.16
2023-03-16T23:37:56.084Z,4.18
2023-03-16T23:40:23.761Z,4.10
2023-03-16T23:42:52.590Z,4.26
2023-03-16T23:45:24.772Z,4.38
2023-03-16T23:47:54.750Z,4.30
2023-03-16T23:50:23.828Z,4.35
2023-03-16T23:52:51.464Z,4.39
2023-03-16T23:55:19.113Z,4.35
2023-03-16T23:57:46.639Z,4.41
